createdAt,value
2019-05-15T00:02:15.840Z,101445.94
2019-05-15T00:04:49.109Z,101441.20
2019-05-15T00:07:20.173Z,101436.09
2019-05-15T00:09:51.485Z,101435.74
2019-05-15T00:12:22.751Z,101433.16
2019-05-15T00:14:54.084Z,101441.00
2019-05-15T00:17:25.379Z,101434.57
2019-05-15T00:19:58.191Z,101430.19
2019-05-15T00:22:29.622Z,101433.74
2019-05-15T00:25:00.955Z,101434.41
2019-05-15T00:27:32.292Z,101434.09
2019-05-15T00:30:03.567Z,101438.08
2019-05-15T00:32:34.884Z,101434.63
2019-05-15T00:35:09.088Z,101437.73
2019-05-15T00:37:39.790Z,101429.49
2019-05-15T00:40:11.315Z,101431.25
2019-05-15T00:42:42.603Z,101429.97
2019-05-15T00:45:14.266Z,101427.91
2019-05-15T00:47:45.515Z,101425.59
2019-05-15T00:50:18.209Z,101430.11
2019-05-15T00:52:49.648Z,101428.75
2019-05-15T00:55:20.892Z,101427.17
2019-05-15T00:57:52.219Z,101418.58
2019-05-15T01:00:43.064Z,101422.83
2019-05-15T01:03:14.590Z,101419.45
2019-05-15T01:05:47.982Z,101415.51
2019-05-15T01:08:19.321Z,101414.36
2019-05-15T01:10:50.739Z,101413.88
2019-05-15T01:13:22.031Z,101413.17
2019-05-15T01:15:53.317Z,101407.84
2019-05-15T01:18:24.622Z,101405.78
2019-05-15T01:20:55.961Z,101404.66
2019-05-15T01:23:28.208Z,101410.78
2019-05-15T01:25:59.715Z,101400.48
2019-05-15T01:28:31.039Z,101402.81
2019-05-15T01:31:02.320Z,101401.58
2019-05-15T01:33:33.599Z,101399.91
2019-05-15T01:36:04.901Z,101398.19
2019-05-15T01:38:38.626Z,101393.82
2019-05-15T01:41:09.843Z,101392.61
2019-05-15T01:43:41.275Z,101390.94
2019-05-15T01:46:12.540Z,101385.33
2019-05-15T01:48:43.842Z,101377.49
2019-05-15T01:51:15.166Z,101381.53
2019-05-15T01:53:48.022Z,101383.75
2019-05-15T01:56:19.490Z,101383.92
2019-05-15T01:58:50.781Z,101385.23
2019-05-15T02:01:22.055Z,101373.56
2019-05-15T02:03:53.307Z,101377.13
2019-05-15T02:06:24.624Z,101374.16
2019-05-15T02:08:58.540Z,101371.11
2019-05-15T02:11:29.049Z,101378.16
2019-05-15T02:14:00.354Z,101372.11
2019-05-15T02:16:31.649Z,101373.89
2019-05-15T02:19:02.914Z,101373.08
2019-05-15T02:21:34.203Z,101378.75
2019-05-15T02:24:07.798Z,101379.22
2019-05-15T02:26:38.987Z,101383.46
2019-05-15T02:29:13.161Z,101384.28
2019-05-15T02:31:43.219Z,101383.81
2019-05-15T02:34:14.492Z,101378.72
2019-05-15T02:36:48.991Z,101379.22
2019-05-15T02:39:19.143Z,101382.27
2019-05-15T02:41:50.408Z,101388.48
2019-05-15T02:44:21.702Z,101382.89
2019-05-15T02:46:53.022Z,101385.05
2019-05-15T02:49:24.467Z,101386.82
2019-05-15T02:51:55.781Z,101386.47
2019-05-15T02:54:29.904Z,101386.84
2019-05-15T02:57:00.071Z,101383.41
2019-05-15T02:59:31.392Z,101383.00
2019-05-15T03:02:02.676Z,101379.11
2019-05-15T03:04:33.990Z,101373.95
2019-05-15T03:07:05.272Z,101381.28
2019-05-15T03:09:39.711Z,101382.95
2019-05-15T03:12:09.522Z,101375.20
2019-05-15T03:14:40.854Z,101377.81
2019-05-15T03:17:12.118Z,101371.27
2019-05-15T03:19:43.599Z,101369.12
2019-05-15T03:22:14.926Z,101376.18
2019-05-15T03:24:46.248Z,101381.86
2019-05-15T03:27:19.738Z,101377.55
2019-05-15T03:29:50.540Z,101378.83
2019-05-15T03:32:32.275Z,101385.73
2019-05-15T03:34:57.275Z,101383.66
2019-05-15T03:37:33.614Z,101383.22
2019-05-15T03:40:00.932Z,101385.84
2019-05-15T03:42:32.218Z,101383.28
2019-05-15T03:45:03.614Z,101385.45
2019-05-15T03:47:34.942Z,101394.26
2019-05-15T03:50:09.001Z,101393.00
2019-05-15T03:52:39.947Z,101389.10
2019-05-15T03:55:11.436Z,101391.74
2019-05-15T03:57:42.773Z,101386.50
2019-05-15T04:00:14.606Z,101390.89
2019-05-15T04:02:48.650Z,101398.80
2019-05-15T04:05:19.904Z,101396.59
2019-05-15T04:07:51.325Z,101400.00
2019-05-15T04:10:22.576Z,101391.81
2019-05-15T04:12:53.932Z,101391.82
2019-05-15T04:15:25.201Z,101388.73
2019-05-15T04:18:00.002Z,101393.13
2019-05-15T04:20:29.839Z,101389.23
2019-05-15T04:23:01.234Z,101391.03
2019-05-15T04:25:34.352Z,101385.31
2019-05-15T04:28:09.943Z,101387.13
2019-05-15T04:30:41.378Z,101386.29
2019-05-15T04:33:12.630Z,101385.84
2019-05-15T04:35:43.910Z,101381.05
2019-05-15T04:38:15.244Z,101381.48
2019-05-15T04:40:49.850Z,101379.69
2019-05-15T04:43:19.647Z,101381.39
2019-05-15T04:45:50.979Z,101382.19
2019-05-15T04:48:22.248Z,101392.18
2019-05-15T04:50:53.546Z,101395.26
2019-05-15T04:53:24.767Z,101393.00
2019-05-15T04:55:56.083Z,101397.27
2019-05-15T04:58:29.638Z,101395.98
2019-05-15T05:01:00.536Z,101393.72
2019-05-15T05:03:34.637Z,101394.98
2019-05-15T05:06:05.234Z,101400.59
2019-05-15T05:08:39.465Z,101399.67
2019-05-15T05:11:10.178Z,101402.22
2019-05-15T05:13:41.472Z,101398.61
2019-05-15T05:16:12.791Z,101394.65
2019-05-15T05:18:44.132Z,101397.24
2019-05-15T05:21:15.428Z,101402.86
2019-05-15T05:23:48.428Z,101397.01
2019-05-15T05:26:19.814Z,101403.91
2019-05-15T05:28:51.103Z,101403.41
2019-05-15T05:31:22.378Z,101409.33
2019-05-15T05:33:53.777Z,101402.58
2019-05-15T05:36:25.082Z,101398.95
2019-05-15T05:38:58.338Z,101396.66
2019-05-15T05:41:29.376Z,101391.23
2019-05-15T05:44:00.691Z,101402.89
2019-05-15T05:46:32.005Z,101411.16
2019-05-15T05:49:03.391Z,101406.97
2019-05-15T05:51:34.676Z,101410.27
2019-05-15T05:54:08.284Z,101410.59
2019-05-15T05:56:38.949Z,101411.17
2019-05-15T05:59:10.226Z,101405.00
2019-05-15T06:01:44.215Z,101403.27
2019-05-15T06:04:14.578Z,101401.12
2019-05-15T06:06:45.890Z,101403.57
2019-05-15T06:09:18.239Z,101400.14
2019-05-15T06:11:49.637Z,101401.37
2019-05-15T06:14:20.953Z,101397.62
2019-05-15T06:16:52.257Z,101406.93
2019-05-15T06:19:23.556Z,101407.46
2019-05-15T06:22:00.248Z,101404.72
2019-05-15T06:24:30.535Z,101413.09
2019-05-15T06:27:00.959Z,101407.67
2019-05-15T06:29:32.253Z,101410.73
2019-05-15T06:32:03.519Z,101409.04
2019-05-15T06:34:34.788Z,101407.34
2019-05-15T06:37:08.196Z,101404.28
2019-05-15T06:39:39.261Z,101402.80
2019-05-15T06:42:10.708Z,101407.72
2019-05-15T06:44:42.054Z,101408.24
2019-05-15T06:47:13.347Z,101409.62
2019-05-15T06:49:48.637Z,101404.41
2019-05-15T06:52:20.103Z,101409.33
2019-05-15T06:54:51.539Z,101409.98
2019-05-15T06:57:22.875Z,101403.55
2019-05-15T06:59:54.164Z,101404.80
2019-05-15T07:02:25.459Z,101402.52
2019-05-15T07:04:58.350Z,101405.14
2019-05-15T07:07:29.830Z,101409.66
2019-05-15T07:10:01.155Z,101408.44
2019-05-15T07:12:32.651Z,101411.92
2019-05-15T07:15:04.146Z,101411.58
2019-05-15T07:17:35.560Z,101406.33
2019-05-15T07:20:08.656Z,101405.52
2019-05-15T07:22:40.297Z,101399.13
2019-05-15T07:25:11.909Z,101400.63
2019-05-15T07:27:43.295Z,101400.47
2019-05-15T07:30:15.108Z,101394.22
2019-05-15T07:32:48.605Z,101400.20
2019-05-15T07:35:20.295Z,101405.63
2019-05-15T07:37:51.615Z,101399.04
2019-05-15T07:40:23.557Z,101400.89
2019-05-15T07:42:54.842Z,101396.83
2019-05-15T07:45:28.296Z,101392.21
2019-05-15T07:47:59.226Z,101393.74
2019-05-15T07:50:30.513Z,101392.82
2019-05-15T07:53:02.238Z,101379.05
2019-05-15T07:55:33.788Z,101381.97
2019-05-15T07:58:05.233Z,101388.47
2019-05-15T08:00:39.300Z,101385.16
2019-05-15T08:03:10.414Z,101368.91
2019-05-15T08:05:54.950Z,101367.91
2019-05-15T08:08:14.912Z,101359.36
2019-05-15T08:10:48.895Z,101357.42
2019-05-15T08:13:19.805Z,101365.37
2019-05-15T08:15:51.184Z,101359.16
2019-05-15T08:18:22.448Z,101357.80
2019-05-15T08:20:53.843Z,101363.86
2019-05-15T08:23:25.129Z,101360.59
2019-05-15T08:25:57.880Z,101352.55
2019-05-15T08:28:29.330Z,101347.11
2019-05-15T08:31:00.655Z,101344.41
2019-05-15T08:33:31.893Z,101346.63
2019-05-15T08:36:03.162Z,101349.16
2019-05-15T08:38:34.504Z,101345.06
2019-05-15T08:41:11.185Z,101343.17
2019-05-15T08:43:38.888Z,101340.52
2019-05-15T08:46:10.204Z,101343.89
2019-05-15T08:48:41.539Z,101343.44
2019-05-15T08:51:12.826Z,101344.64
2019-05-15T08:53:44.219Z,101344.60
2019-05-15T08:56:15.498Z,101340.98
2019-05-15T08:58:48.677Z,101337.54
2019-05-15T09:01:19.790Z,101333.36
2019-05-15T09:03:51.099Z,101335.73
2019-05-15T09:06:23.152Z,101328.91
2019-05-15T09:08:54.614Z,101339.84
2019-05-15T09:11:28.181Z,101329.66
2019-05-15T09:13:59.626Z,101329.53
2019-05-15T09:16:30.971Z,101327.09
2019-05-15T09:19:02.374Z,101330.69
2019-05-15T09:21:33.748Z,101332.05
2019-05-15T09:24:05.092Z,101336.32
2019-05-15T09:26:40.104Z,101322.45
2019-05-15T09:29:09.540Z,101318.16
2019-05-15T09:31:40.867Z,101314.73
2019-05-15T09:34:12.199Z,101311.25
2019-05-15T09:36:45.308Z,101309.66
2019-05-15T09:39:18.331Z,101303.20
2019-05-15T09:41:49.726Z,101302.05
2019-05-15T09:44:22.093Z,101295.19
2019-05-15T09:46:53.573Z,101299.72
2019-05-15T09:49:24.888Z,101300.55
2019-05-15T09:51:58.426Z,101299.22
2019-05-15T09:54:29.518Z,101291.03
2019-05-15T09:57:00.846Z,101288.77
2019-05-15T09:59:32.152Z,101285.80
2019-05-15T10:02:03.466Z,101291.27
2019-05-15T10:04:34.762Z,101284.19
2019-05-15T10:07:08.087Z,101279.55
2019-05-15T10:09:39.073Z,101288.75
2019-05-15T10:12:10.345Z,101283.55
2019-05-15T10:14:41.623Z,101280.80
2019-05-15T10:17:12.986Z,101277.84
2019-05-15T10:19:44.276Z,101282.01
2019-05-15T10:22:15.554Z,101272.05
2019-05-15T10:24:50.836Z,101274.35
2019-05-15T10:27:19.786Z,101271.47
2019-05-15T10:29:51.068Z,101265.30
2019-05-15T10:32:22.469Z,101261.41
2019-05-15T10:34:53.764Z,101263.05
2019-05-15T10:37:25.054Z,101256.78
2019-05-15T10:39:58.431Z,101256.33
2019-05-15T10:42:29.322Z,101253.07
2019-05-15T10:45:00.640Z,101251.06
2019-05-15T10:47:31.982Z,101241.34
2019-05-15T10:50:03.318Z,101238.59
2019-05-15T10:52:34.610Z,101231.39
2019-05-15T10:55:08.919Z,101235.38
2019-05-15T10:57:43.232Z,101228.45
2019-05-15T11:00:13.506Z,101224.52
2019-05-15T11:02:44.769Z,101221.94
2019-05-15T11:05:17.975Z,101222.59
2019-05-15T11:07:49.361Z,101218.30
2019-05-15T11:10:20.790Z,101221.94
2019-05-15T11:12:52.072Z,101217.39
2019-05-15T11:15:23.413Z,101218.74
2019-05-15T11:17:54.723Z,101216.36
2019-05-15T11:20:25.980Z,101210.86
2019-05-15T11:22:59.156Z,101197.19
2019-05-15T11:25:30.504Z,101203.84
2019-05-15T11:28:01.791Z,101193.41
2019-05-15T11:30:33.117Z,101185.38
2019-05-15T11:33:04.427Z,101192.46
2019-05-15T11:35:40.696Z,101175.31
2019-05-15T11:38:10.867Z,101177.94
2019-05-15T11:40:42.121Z,101175.39
2019-05-15T11:43:13.424Z,101173.30
2019-05-15T11:45:44.682Z,101168.34
2019-05-15T11:48:15.967Z,101171.41
2019-05-15T11:50:47.229Z,101165.09
2019-05-15T11:53:19.180Z,101167.83
2019-05-15T11:55:50.712Z,101157.79
2019-05-15T11:58:22.008Z,101173.14
2019-05-15T12:00:53.280Z,101157.83
2019-05-15T12:03:25.078Z,101158.78
2019-05-15T12:05:59.660Z,101147.62
2019-05-15T12:08:29.578Z,101146.58
2019-05-15T12:11:01.771Z,101152.45
2019-05-15T12:13:33.117Z,101148.53
2019-05-15T12:16:04.426Z,101149.27
2019-05-15T12:18:39.042Z,101150.91
2019-05-15T12:21:12.577Z,101148.35
2019-05-15T12:23:43.914Z,101147.14
2019-05-15T12:26:15.228Z,101144.24
2019-05-15T12:28:48.921Z,101128.77
2019-05-15T12:31:24.420Z,101127.77
2019-05-15T12:33:52.541Z,101137.66
2019-05-15T12:36:47.260Z,101129.09
2019-05-15T12:38:57.235Z,101115.67
2019-05-15T13:01:54.386Z,101119.30
2019-05-15T13:04:28.286Z,101098.14
2019-05-15T13:07:12.250Z,101122.91
2019-05-15T13:09:32.313Z,101103.37
2019-05-15T13:12:03.641Z,101106.47
2019-05-15T13:14:34.997Z,101113.06
2019-05-15T13:17:09.119Z,101103.89
2019-05-15T13:19:41.059Z,101110.30
2019-05-15T13:22:18.109Z,101104.20
2019-05-15T13:24:48.079Z,101103.72
2019-05-15T13:27:18.513Z,101092.77
2019-05-15T13:29:49.817Z,101076.88
2019-05-15T13:32:21.131Z,101091.17
2019-05-15T13:34:55.276Z,101078.28
2019-05-15T13:37:30.966Z,101084.07
2019-05-15T13:40:06.624Z,101077.77
2019-05-15T13:42:39.119Z,101077.56
2019-05-15T13:45:13.797Z,101061.77
2019-05-15T13:47:45.097Z,101065.17
2019-05-15T13:50:19.355Z,101063.69
2019-05-15T13:52:49.358Z,101062.48
2019-05-15T13:55:25.733Z,101060.45
2019-05-15T13:57:53.694Z,101058.95
2019-05-15T14:00:25.060Z,101057.01
2019-05-15T14:02:58.398Z,101051.51
2019-05-15T14:05:29.808Z,101049.47
2019-05-15T14:08:01.100Z,101053.74
2019-05-15T14:10:32.372Z,101048.05
2019-05-15T14:13:03.668Z,101039.44
2019-05-15T14:15:34.960Z,101046.20
2019-05-15T14:18:08.363Z,101048.70
2019-05-15T14:20:39.222Z,101047.65
2019-05-15T14:23:10.695Z,101042.76
2019-05-15T14:25:42.093Z,101035.05
2019-05-15T14:28:13.381Z,101037.25
2019-05-15T14:30:44.670Z,101043.11
2019-05-15T14:33:15.955Z,101029.59
2019-05-15T14:35:48.694Z,101029.08
2019-05-15T14:38:22.274Z,101034.44
2019-05-15T14:40:55.260Z,101032.02
2019-05-15T14:43:26.518Z,101024.57
2019-05-15T14:45:59.918Z,101007.89
2019-05-15T14:48:31.215Z,101020.30
2019-05-15T14:51:02.509Z,101010.05
2019-05-15T14:53:33.840Z,101010.22
2019-05-15T14:56:08.432Z,101015.41
2019-05-15T14:58:39.207Z,101010.57
2019-05-15T15:01:12.496Z,101006.67
2019-05-15T15:03:43.520Z,101003.58
2019-05-15T15:06:14.817Z,101000.46
2019-05-15T15:08:46.501Z,100996.05
2019-05-15T15:11:19.214Z,101000.28
2019-05-15T15:13:50.562Z,100994.81
2019-05-15T15:16:21.896Z,100993.11
2019-05-15T15:18:53.196Z,100992.39
2019-05-15T15:21:24.487Z,100990.17
2019-05-15T15:23:55.755Z,100978.61
2019-05-15T15:26:29.315Z,100983.70
2019-05-15T15:29:00.650Z,100977.19
2019-05-15T15:31:32.071Z,100982.19
2019-05-15T15:34:03.561Z,100977.31
2019-05-15T15:36:34.820Z,100971.77
2019-05-15T15:39:08.264Z,100968.53
2019-05-15T15:41:39.791Z,100967.11
2019-05-15T15:44:14.237Z,100961.58
2019-05-15T15:46:48.296Z,100956.02
2019-05-15T15:49:18.577Z,100956.96
2019-05-15T15:51:49.862Z,100964.61
2019-05-15T15:54:21.129Z,100962.52
2019-05-15T15:56:52.486Z,100958.15
2019-05-15T15:59:23.844Z,100962.73
2019-05-15T16:01:59.857Z,100958.69
2019-05-15T16:04:30.813Z,100962.41
2019-05-15T16:07:02.037Z,100956.30
2019-05-15T16:09:33.287Z,100962.33
2019-05-15T16:12:04.595Z,100948.17
2019-05-15T16:14:37.993Z,100956.03
2019-05-15T16:17:08.846Z,100961.12
2019-05-15T16:19:40.090Z,100954.44
2019-05-15T16:22:11.403Z,100958.66
2019-05-15T16:24:42.663Z,100956.59
2019-05-15T16:27:14.022Z,100957.31
2019-05-15T16:29:45.293Z,100950.94
2019-05-15T16:32:21.050Z,100950.47
2019-05-15T16:34:49.718Z,100941.83
2019-05-15T16:37:21.024Z,100939.71
2019-05-15T16:39:52.330Z,100931.00
2019-05-15T16:42:23.661Z,100939.14
2019-05-15T16:44:55.007Z,100939.09
2019-05-15T16:47:27.940Z,100930.89
2019-05-15T16:49:59.394Z,100929.95
2019-05-15T16:52:31.379Z,100921.17
2019-05-15T16:55:02.761Z,100921.48
2019-05-15T16:57:34.091Z,100933.19
2019-05-15T17:00:05.885Z,100935.30
2019-05-15T17:02:39.146Z,100926.98
2019-05-15T17:05:11.329Z,100927.81
2019-05-15T17:07:42.646Z,100929.54
2019-05-15T17:10:14.006Z,100926.68
2019-05-15T17:12:45.386Z,100930.27
2019-05-15T17:15:17.330Z,100928.51
2019-05-15T17:17:48.791Z,100926.58
2019-05-15T17:20:20.562Z,100922.38
2019-05-15T17:22:51.970Z,100928.87
2019-05-15T17:25:23.342Z,100922.70
2019-05-15T17:27:54.720Z,100921.50
2019-05-15T17:30:26.085Z,100919.60
2019-05-15T17:32:57.401Z,100923.42
2019-05-15T17:35:28.731Z,100933.23
2019-05-15T17:38:00.071Z,100927.55
2019-05-15T17:40:31.404Z,100923.27
2019-05-15T17:43:02.796Z,100922.63
2019-05-15T17:45:34.510Z,100916.35
2019-05-15T17:48:05.838Z,100918.61
2019-05-15T17:50:45.866Z,100915.47
2019-05-15T17:53:10.253Z,100912.90
2019-05-15T17:55:41.575Z,100916.50
2019-05-15T17:58:12.937Z,100911.10
2019-05-15T18:00:44.298Z,100911.84
2019-05-15T18:03:15.616Z,100911.66
2019-05-15T18:05:48.417Z,100909.38
2019-05-15T18:08:19.842Z,100907.68
2019-05-15T18:10:51.120Z,100904.83
2019-05-15T18:13:22.414Z,100911.17
2019-05-15T18:15:53.726Z,100909.75
2019-05-15T18:18:25.078Z,100912.88
2019-05-15T18:20:58.155Z,100903.86
2019-05-15T18:23:29.688Z,100902.45
2019-05-15T18:26:01.202Z,100908.30
2019-05-15T18:28:32.532Z,100908.43
2019-05-15T18:31:03.897Z,100915.45
2019-05-15T18:33:35.278Z,100910.38
2019-05-15T18:36:08.365Z,100907.25
2019-05-15T18:38:39.631Z,100906.95
2019-05-15T18:41:10.968Z,100907.31
2019-05-15T18:43:42.326Z,100908.80
2019-05-15T18:46:13.637Z,100912.23
2019-05-15T18:48:48.606Z,100912.28
2019-05-15T18:51:20.042Z,100911.01
2019-05-15T18:53:51.381Z,100912.75
2019-05-15T18:56:22.647Z,100910.56
2019-05-15T18:58:53.956Z,100914.98
2019-05-15T19:01:25.288Z,100914.80
2019-05-15T19:03:58.263Z,100913.48
2019-05-15T19:06:29.734Z,100911.02
2019-05-15T19:09:01.818Z,100910.49
2019-05-15T19:11:33.137Z,100910.80
2019-05-15T19:14:04.453Z,100909.35
2019-05-15T19:16:38.632Z,100910.06
2019-05-15T19:19:08.933Z,100910.40
2019-05-15T19:21:40.249Z,100913.12
2019-05-15T19:24:11.745Z,100914.23
2019-05-15T19:26:43.038Z,100910.43
2019-05-15T19:29:14.331Z,100911.66
2019-05-15T19:31:45.630Z,100911.73
2019-05-15T19:34:18.989Z,100913.12
2019-05-15T19:36:50.346Z,100910.14
2019-05-15T19:39:21.685Z,100907.33
2019-05-15T19:41:53.116Z,100905.55
2019-05-15T19:44:24.404Z,100900.66
2019-05-15T19:46:58.375Z,100904.78
2019-05-15T19:49:28.944Z,100905.02
2019-05-15T19:52:00.229Z,100909.72
2019-05-15T19:54:31.521Z,100898.14
2019-05-15T19:57:02.860Z,100906.22
2019-05-15T19:59:34.202Z,100904.80
2019-05-15T20:02:05.498Z,100906.91
2019-05-15T20:04:38.528Z,100899.17
2019-05-15T20:07:09.978Z,100904.78
2019-05-15T20:09:41.278Z,100894.50
2019-05-15T20:12:12.578Z,100902.20
2019-05-15T20:14:44.114Z,100900.05
2019-05-15T20:17:15.491Z,100902.08
2019-05-15T20:19:48.774Z,100899.19
2019-05-15T20:22:19.989Z,100901.52
2019-05-15T20:24:51.266Z,100908.16
2019-05-15T20:27:22.550Z,100902.95
2019-05-15T20:29:53.989Z,100905.59
2019-05-15T20:32:27.669Z,100899.48
2019-05-15T20:34:58.309Z,100898.37
2019-05-15T20:37:29.597Z,100896.48
2019-05-15T20:40:00.886Z,100901.98
2019-05-15T20:42:32.464Z,100897.89
2019-05-15T20:45:03.786Z,100895.83
2019-05-15T20:47:38.960Z,100899.52
2019-05-15T20:50:11.038Z,100900.79
2019-05-15T20:52:42.339Z,100899.75
2019-05-15T20:55:13.727Z,100895.03
2019-05-15T20:57:47.667Z,100899.59
2019-05-15T21:00:19.580Z,100894.09
2019-05-15T21:02:50.879Z,100901.33
2019-05-15T21:05:22.191Z,100894.63
2019-05-15T21:07:53.572Z,100891.86
2019-05-15T21:10:25.015Z,100896.62
2019-05-15T21:12:59.085Z,100895.55
2019-05-15T21:15:29.251Z,100888.84
2019-05-15T21:18:13.718Z,100887.19
2019-05-15T21:20:33.593Z,100885.11
2019-05-15T21:23:05.164Z,100883.25
2019-05-15T21:25:38.707Z,100883.73
2019-05-15T21:28:09.492Z,100880.42
2019-05-15T21:30:41.031Z,100883.52
2019-05-15T21:33:12.539Z,100889.13
2019-05-15T21:35:43.825Z,100895.34
2019-05-15T21:38:15.238Z,100889.75
2019-05-15T21:40:47.971Z,100890.41
2019-05-15T21:43:19.432Z,100887.92
2019-05-15T21:45:50.748Z,100886.94
2019-05-15T21:48:22.064Z,100886.48
2019-05-15T21:50:53.349Z,100884.56
2019-05-15T21:53:24.664Z,100883.14
2019-05-15T21:55:55.981Z,100880.72
2019-05-15T21:58:28.439Z,100877.39
2019-05-15T22:01:00.194Z,100876.11
2019-05-15T22:03:31.479Z,100874.87
2019-05-15T22:06:22.236Z,100868.68
2019-05-15T22:12:18.366Z,100870.18
2019-05-15T22:15:21.507Z,100869.38
2019-05-15T22:18:11.869Z,100868.88
2019-05-15T22:20:54.375Z,100870.16
2019-05-15T22:23:44.872Z,100862.46
2019-05-15T22:26:29.031Z,100863.52
2019-05-15T22:29:20.862Z,100856.72
2019-05-15T22:32:24.633Z,100854.29
2019-05-15T22:35:15.210Z,100852.62
2019-05-15T22:37:58.490Z,100849.78
2019-05-15T22:40:48.998Z,100847.59
2019-05-15T22:43:31.864Z,100841.98
2019-05-15T22:46:22.192Z,100840.73
2019-05-15T22:49:05.207Z,100832.30
2019-05-15T22:51:57.998Z,100833.27
2019-05-15T22:54:59.822Z,100832.66
2019-05-15T22:57:42.924Z,100825.85
2019-05-15T23:00:33.290Z,100826.48
2019-05-15T23:03:23.631Z,100820.02
2019-05-15T23:06:08.248Z,100814.16
2019-05-15T23:08:58.426Z,100818.28
2019-05-15T23:11:41.102Z,100819.25
2019-05-15T23:14:31.452Z,100821.95
2019-05-15T23:17:14.167Z,100821.26
2019-05-15T23:23:33.027Z,100820.11
2019-05-15T23:26:23.448Z,100807.61
2019-05-15T23:29:07.952Z,100812.44
2019-05-15T23:31:58.513Z,100806.78
2019-05-15T23:34:41.234Z,100814.72
2019-05-15T23:37:31.555Z,100806.53
2019-05-15T23:40:14.891Z,100809.09
2019-05-15T23:43:05.598Z,100810.03
2019-05-15T23:45:48.516Z,100804.87
2019-05-15T23:48:38.899Z,100807.28
2019-05-15T23:51:22.382Z,100804.84
2019-05-15T23:54:12.746Z,100804.39
2019-05-15T23:56:58.430Z,100798.74
2019-05-15T23:59:40.972Z,100796.63
